New Bethlehem, Pennsylvania
Current Conditions -  °F | °C
As of 1:53 PM on Friday 28 Nov 2014 (Local Time) from KDUJ Reporting Station
Overcast Overcast  
Wind Chill: 11°   Ceiling: 2300
Heat Index: 23°   Visibility: 10mi
Dew Point: 15°   Wind: 13mph
Humidity: 72%   Direction: 250°WSW
Pressure: 30.17"   Gusts: NA
Location:  41°N, 79.33°W
Report Text: KDUJ 281853Z AUTO 25011KT 10SM BKN023 OVC030 M05/M09 A3017 RMK AO2 SNE07 SLP241 P0000 T10501094
Loading
Personal Weather Stations






























Interactive Weather Map New forecast layout! Learn more

10-Day Weather Forecast

Advertisements
Track Severe Weather on mobile